createdAt,value
2023-04-16T00:00:31.629Z,86747.00
2023-04-16T00:02:59.031Z,86755.19
2023-04-16T00:05:26.481Z,86744.72
2023-04-16T00:07:53.786Z,86743.88
2023-04-16T00:10:21.093Z,86744.28
2023-04-16T00:12:48.530Z,86748.75
2023-04-16T00:15:15.794Z,86742.78
2023-04-16T00:17:43.210Z,86746.16
2023-04-16T00:20:10.987Z,86748.66
2023-04-16T00:22:38.209Z,86753.13
2023-04-16T00:25:06.118Z,86749.78
2023-04-16T00:27:33.492Z,86744.06
2023-04-16T00:30:00.756Z,86747.34
2023-04-16T00:32:28.268Z,86751.88
2023-04-16T00:34:55.716Z,86748.88
2023-04-16T00:37:23.068Z,86755.25
2023-04-16T00:39:51.225Z,86754.09
2023-04-16T00:42:18.675Z,86752.91
2023-04-16T00:44:45.868Z,86748.81
2023-04-16T00:47:13.197Z,86746.94
2023-04-16T00:49:40.651Z,86748.75
2023-04-16T00:52:08.133Z,86755.47
2023-04-16T00:54:36.006Z,86756.97
2023-04-16T00:57:03.607Z,86757.31
2023-04-16T00:59:30.972Z,86749.41
2023-04-16T01:01:58.381Z,86754.63
2023-04-16T01:04:25.903Z,86748.94
2023-04-16T01:06:53.397Z,86748.81
2023-04-16T01:09:20.567Z,86752.84
2023-04-16T01:11:47.777Z,86757.13
2023-04-16T01:14:15.091Z,86763.19
2023-04-16T01:16:42.452Z,86749.75
2023-04-16T01:19:10.104Z,86760.84
2023-04-16T01:21:37.505Z,86747.44
2023-04-16T01:24:05.728Z,86754.13
2023-04-16T01:26:33.333Z,86751.38
2023-04-16T01:29:00.975Z,86763.22
2023-04-16T01:31:28.281Z,86756.94
2023-04-16T01:33:55.601Z,86755.84
2023-04-16T01:36:23.298Z,86761.97
2023-04-16T01:38:50.606Z,86761.50
2023-04-16T01:41:17.759Z,86764.84
2023-04-16T01:43:44.999Z,86755.75
2023-04-16T01:46:23.926Z,86761.41
2023-04-16T01:48:51.203Z,86765.38
2023-04-16T01:51:18.495Z,86769.06
2023-04-16T01:53:46.052Z,86763.09
2023-04-16T01:56:13.439Z,86765.03
2023-04-16T01:58:40.611Z,86772.78
2023-04-16T02:01:07.879Z,86764.56
2023-04-16T02:03:35.666Z,86767.47
2023-04-16T02:06:03.027Z,86761.84
2023-04-16T02:08:32.950Z,86750.38
2023-04-16T02:11:00.725Z,86762.38
2023-04-16T02:13:27.898Z,86769.47
2023-04-16T02:15:55.398Z,86765.28
2023-04-16T02:18:22.703Z,86768.66
2023-04-16T02:20:49.961Z,86777.47
2023-04-16T02:23:17.796Z,86774.88
2023-04-16T02:25:47.303Z,86773.78
2023-04-16T02:28:17.286Z,86772.69
2023-04-16T02:30:44.821Z,86775.28
2023-04-16T02:33:13.130Z,86773.78
2023-04-16T02:35:40.878Z,86763.28
2023-04-16T02:38:08.905Z,86769.25
2023-04-16T02:40:36.764Z,86768.75
2023-04-16T02:43:04.063Z,86772.44
2023-04-16T02:45:31.874Z,86776.22
2023-04-16T02:47:59.287Z,86776.88
2023-04-16T02:50:26.594Z,86775.72
2023-04-16T02:52:53.817Z,86777.56
2023-04-16T02:55:21.192Z,86778.00
2023-04-16T02:57:48.449Z,86775.66
2023-04-16T03:00:15.757Z,86778.44
2023-04-16T03:02:43.028Z,86783.63
2023-04-16T03:05:10.883Z,86776.16
2023-04-16T03:07:38.206Z,86781.59
2023-04-16T03:10:07.446Z,86787.47
2023-04-16T03:12:35.471Z,86777.00
2023-04-16T03:15:03.216Z,86779.50
2023-04-16T03:17:30.456Z,86785.06
2023-04-16T03:19:57.753Z,86787.97
2023-04-16T03:22:25.265Z,86784.97
2023-04-16T03:24:52.460Z,86788.22
2023-04-16T03:27:19.686Z,86791.16
2023-04-16T03:29:47.181Z,86793.41
2023-04-16T03:32:14.506Z,86789.22
2023-04-16T03:34:41.742Z,86788.38
2023-04-16T03:37:08.948Z,86786.78
2023-04-16T03:39:36.041Z,86790.56
2023-04-16T03:42:03.749Z,86792.00
2023-04-16T03:44:31.121Z,86801.31
2023-04-16T03:46:58.414Z,86794.25
2023-04-16T03:49:25.666Z,86806.50
2023-04-16T03:51:53.188Z,86809.41
2023-04-16T03:54:22.454Z,86818.22
2023-04-16T03:56:50.341Z,86807.31
2023-04-16T03:59:18.139Z,86811.09
2023-04-16T04:01:45.521Z,86809.69
2023-04-16T04:04:12.767Z,86815.53
2023-04-16T04:06:40.106Z,86821.81
2023-04-16T04:09:07.485Z,86823.31
2023-04-16T04:11:34.818Z,86829.19
2023-04-16T04:14:02.228Z,86824.75
2023-04-16T04:16:29.530Z,86832.97
2023-04-16T04:18:56.775Z,86830.69
2023-04-16T04:21:24.212Z,86832.19
2023-04-16T04:23:51.416Z,86832.19
2023-04-16T04:26:18.963Z,86840.84
2023-04-16T04:28:46.441Z,86843.47
2023-04-16T04:31:14.293Z,86848.72
2023-04-16T04:33:41.540Z,86848.72
2023-04-16T04:36:08.764Z,86837.25
2023-04-16T04:38:35.970Z,86845.78
2023-04-16T04:41:03.262Z,86847.31
2023-04-16T04:43:30.702Z,86844.78
2023-04-16T04:46:03.255Z,86850.84
2023-04-16T04:48:30.541Z,86846.50
2023-04-16T04:50:57.800Z,86852.13
2023-04-16T04:53:25.023Z,86857.84
2023-04-16T04:55:54.174Z,86855.97
2023-04-16T04:58:24.624Z,86840.53
2023-04-16T05:00:51.979Z,86846.94
2023-04-16T05:03:22.703Z,86854.81
2023-04-16T05:05:50.027Z,86857.31
2023-04-16T05:08:17.260Z,86866.72
2023-04-16T05:10:44.520Z,86860.53
2023-04-16T05:13:11.779Z,86863.63
2023-04-16T05:15:40.521Z,86861.53
2023-04-16T05:18:07.754Z,86858.94
2023-04-16T05:20:35.077Z,86857.09
2023-04-16T05:23:02.277Z,86858.25
2023-04-16T05:25:29.681Z,86860.28
2023-04-16T05:27:57.065Z,86856.66
2023-04-16T05:30:24.311Z,86861.94
2023-04-16T05:32:51.732Z,86859.03
2023-04-16T05:35:19.176Z,86870.59
2023-04-16T05:37:47.683Z,86867.25
2023-04-16T05:40:18.218Z,86871.03
2023-04-16T05:42:51.814Z,86866.91
2023-04-16T05:45:19.324Z,86870.25
2023-04-16T05:47:46.485Z,86869.59
2023-04-16T05:50:13.749Z,86872.59
2023-04-16T05:52:41.090Z,86875.22
2023-04-16T05:55:08.763Z,86872.69
2023-04-16T05:57:36.026Z,86864.56
2023-04-16T06:00:03.500Z,86869.75
2023-04-16T06:02:30.970Z,86869.06
2023-04-16T06:04:58.166Z,86867.28
2023-04-16T06:07:25.339Z,86883.34
2023-04-16T06:09:52.903Z,86885.69
2023-04-16T06:12:20.157Z,86879.81
2023-04-16T06:14:47.440Z,86880.72
2023-04-16T06:17:14.872Z,86883.06
2023-04-16T06:19:42.092Z,86876.84
2023-04-16T06:22:09.498Z,86872.88
2023-04-16T06:24:37.155Z,86867.91
2023-04-16T06:27:04.729Z,86872.59
2023-04-16T06:29:40.468Z,86875.75
2023-04-16T06:32:08.719Z,86868.09
2023-04-16T06:34:37.260Z,86863.44
2023-04-16T06:37:04.507Z,86865.47
2023-04-16T06:39:31.802Z,86864.19
2023-04-16T06:41:59.115Z,86865.50
2023-04-16T06:44:26.330Z,86864.59
2023-04-16T06:46:53.773Z,86863.28
2023-04-16T06:49:21.469Z,86863.06
2023-04-16T06:51:48.713Z,86861.75
2023-04-16T06:54:16.317Z,86864.19
2023-04-16T06:56:43.676Z,86866.63
2023-04-16T06:59:11.373Z,86861.25
2023-04-16T07:01:38.820Z,86864.03
2023-04-16T07:04:06.182Z,86862.69
2023-04-16T07:06:33.429Z,86863.53
2023-04-16T07:09:00.657Z,86857.66
2023-04-16T07:11:27.970Z,86864.91
2023-04-16T07:13:55.388Z,86865.44
2023-04-16T07:16:22.659Z,86863.72
2023-04-16T07:18:49.985Z,86867.19
2023-04-16T07:21:17.312Z,86866.16
2023-04-16T07:23:44.616Z,86861.81
2023-04-16T07:26:11.870Z,86867.53
2023-04-16T07:28:39.155Z,86864.63
2023-04-16T07:31:06.592Z,86867.75
2023-04-16T07:33:33.846Z,86855.84
2023-04-16T07:36:01.151Z,86862.69
2023-04-16T07:38:28.367Z,86858.69
2023-04-16T07:40:56.157Z,86857.28
2023-04-16T07:43:23.334Z,86858.09
2023-04-16T07:45:50.660Z,86860.75
2023-04-16T07:48:17.937Z,86863.88
2023-04-16T07:50:45.400Z,86862.88
2023-04-16T07:53:13.030Z,86861.81
2023-04-16T07:55:40.213Z,86854.81
2023-04-16T07:58:07.372Z,86860.44
2023-04-16T08:00:34.616Z,86856.88
2023-04-16T08:03:02.000Z,86855.47
2023-04-16T08:05:29.516Z,86856.63
2023-04-16T08:07:56.825Z,86854.78
2023-04-16T08:10:24.077Z,86854.53
2023-04-16T08:12:51.386Z,86863.94
2023-04-16T08:15:18.789Z,86860.19
2023-04-16T08:17:46.255Z,86874.13
2023-04-16T08:20:16.945Z,86862.56
2023-04-16T08:22:46.787Z,86867.16
2023-04-16T08:25:14.737Z,86872.84
2023-04-16T08:27:42.077Z,86870.97
2023-04-16T08:30:09.408Z,86865.81
2023-04-16T08:32:36.678Z,86863.53
2023-04-16T08:35:04.527Z,86862.53
2023-04-16T08:37:31.960Z,86866.00
2023-04-16T08:39:59.123Z,86869.78
2023-04-16T08:42:39.388Z,86869.13
2023-04-16T08:45:18.302Z,86858.66
2023-04-16T08:47:51.075Z,86868.78
2023-04-16T08:50:25.313Z,86871.81
2023-04-16T08:53:06.602Z,86873.72
2023-04-16T08:55:40.632Z,86878.22
2023-04-16T08:58:22.837Z,86875.97
2023-04-16T09:00:50.321Z,86875.59
2023-04-16T09:03:18.130Z,86884.63
2023-04-16T09:05:46.758Z,86880.50
2023-04-16T09:08:14.367Z,86882.38
2023-04-16T09:10:42.501Z,86892.16
2023-04-16T09:13:11.020Z,86895.56
2023-04-16T09:15:39.871Z,86894.47
2023-04-16T09:18:07.158Z,86892.25
2023-04-16T09:20:35.163Z,86892.66
2023-04-16T09:23:02.398Z,86895.69
2023-04-16T09:25:36.032Z,86900.56
2023-04-16T09:28:04.090Z,86893.84
2023-04-16T09:30:31.260Z,86896.44
2023-04-16T09:33:20.608Z,86901.72
2023-04-16T09:35:50.271Z,86899.09
2023-04-16T09:38:23.793Z,86887.81
2023-04-16T09:41:07.836Z,86898.72
2023-04-16T09:43:36.977Z,86893.47
2023-04-16T09:46:08.210Z,86897.97
2023-04-16T09:48:35.920Z,86890.81
2023-04-16T09:51:07.029Z,86892.72
2023-04-16T09:53:34.501Z,86901.75
2023-04-16T09:56:05.464Z,86899.47
2023-04-16T09:58:35.925Z,86910.00
2023-04-16T10:01:05.426Z,86903.59
2023-04-16T10:03:34.693Z,86900.59
2023-04-16T10:06:19.405Z,86906.59
2023-04-16T10:08:50.657Z,86904.38
2023-04-16T10:11:19.786Z,86905.47
2023-04-16T10:13:47.315Z,86908.47
2023-04-16T10:16:14.750Z,86904.00
2023-04-16T10:18:45.066Z,86899.47
2023-04-16T10:21:14.013Z,86909.59
2023-04-16T10:23:43.961Z,86902.06
2023-04-16T10:26:11.616Z,86902.81
2023-04-16T10:28:40.630Z,86908.78
2023-04-16T10:31:09.771Z,86906.84
2023-04-16T10:33:43.169Z,86903.09
2023-04-16T10:36:17.080Z,86901.47
2023-04-16T10:38:50.332Z,86901.38
2023-04-16T10:41:22.759Z,86904.38
2023-04-16T10:43:52.334Z,86905.03
2023-04-16T10:46:32.118Z,86889.41
2023-04-16T10:49:13.515Z,86893.66
2023-04-16T10:51:44.335Z,86894.88
2023-04-16T10:54:12.279Z,86896.09
2023-04-16T10:56:48.185Z,86896.41
2023-04-16T10:59:21.180Z,86895.28
2023-04-16T11:01:56.114Z,86880.19
2023-04-16T11:04:33.892Z,86890.78
2023-04-16T11:07:13.270Z,86890.75
2023-04-16T11:10:03.319Z,86887.34
2023-04-16T11:12:38.232Z,86888.38
2023-04-16T11:15:17.819Z,86898.16
2023-04-16T11:17:50.484Z,86895.25
2023-04-16T11:20:25.321Z,86884.63
2023-04-16T11:22:55.945Z,86893.63
2023-04-16T11:25:26.009Z,86895.34
2023-04-16T11:27:54.029Z,86893.44
2023-04-16T11:30:36.575Z,86885.25
2023-04-16T11:33:09.974Z,86887.38
2023-04-16T11:35:39.520Z,86886.53
2023-04-16T11:38:07.239Z,86870.91
2023-04-16T11:40:35.417Z,86880.47
2023-04-16T11:43:13.849Z,86874.88
2023-04-16T11:46:02.609Z,86876.47
2023-04-16T11:48:56.169Z,86890.44
2023-04-16T11:51:24.138Z,86885.69
2023-04-16T11:53:53.763Z,86876.56
2023-04-16T11:56:28.617Z,86874.06
2023-04-16T11:59:15.805Z,86881.69
2023-04-16T12:01:49.354Z,86879.06
2023-04-16T12:04:20.650Z,86874.91
2023-04-16T12:07:12.529Z,86876.06
2023-04-16T12:09:42.676Z,86876.75
2023-04-16T12:12:31.902Z,86880.59
2023-04-16T12:15:00.314Z,86885.75
2023-04-16T12:17:27.746Z,86889.22
2023-04-16T12:20:00.942Z,86892.19
2023-04-16T12:22:37.425Z,86882.16
2023-04-16T12:25:16.762Z,86891.59
2023-04-16T12:27:50.683Z,86881.47
2023-04-16T12:30:23.779Z,86884.97
2023-04-16T12:33:12.116Z,86882.03
2023-04-16T12:35:41.148Z,86883.28
2023-04-16T12:38:09.168Z,86879.06
2023-04-16T12:40:36.985Z,86883.88
2023-04-16T12:43:04.253Z,86883.09
2023-04-16T12:45:31.711Z,86887.84
2023-04-16T12:47:59.499Z,86882.84
2023-04-16T12:50:27.187Z,86895.53
2023-04-16T12:52:57.627Z,86891.22
2023-04-16T12:55:25.682Z,86892.84
2023-04-16T12:57:53.335Z,86902.84
2023-04-16T13:00:21.272Z,86906.66
2023-04-16T13:02:48.958Z,86908.09
2023-04-16T13:05:16.807Z,86906.78
2023-04-16T13:07:44.565Z,86902.34
2023-04-16T13:10:12.680Z,86909.88
2023-04-16T13:12:40.376Z,86898.38
2023-04-16T13:15:08.542Z,86898.50
2023-04-16T13:17:36.176Z,86896.09
2023-04-16T13:20:04.450Z,86894.94
2023-04-16T13:22:32.190Z,86891.06
2023-04-16T13:24:59.744Z,86892.72
2023-04-16T13:27:27.840Z,86898.81
2023-04-16T13:29:55.453Z,86905.47
2023-04-16T13:32:23.083Z,86897.88
2023-04-16T13:34:50.795Z,86900.50
2023-04-16T13:37:18.501Z,86908.38
2023-04-16T13:39:46.122Z,86899.09
2023-04-16T13:42:13.696Z,86896.25
2023-04-16T13:44:41.762Z,86897.88
2023-04-16T13:47:09.690Z,86900.88
2023-04-16T13:49:37.267Z,86903.91
2023-04-16T13:52:04.871Z,86896.41
2023-04-16T13:54:32.444Z,86889.31
2023-04-16T13:57:00.412Z,86902.28
2023-04-16T13:59:28.071Z,86909.75
2023-04-16T14:01:55.754Z,86904.28
2023-04-16T14:04:23.527Z,86911.50
2023-04-16T14:06:51.452Z,86918.22
2023-04-16T14:09:18.990Z,86915.00
2023-04-16T14:11:46.617Z,86921.94
2023-04-16T14:14:14.416Z,86926.63
2023-04-16T14:16:42.119Z,86915.22
2023-04-16T14:19:10.157Z,86923.81
2023-04-16T14:21:37.879Z,86913.16
2023-04-16T14:24:05.685Z,86920.47
2023-04-16T14:26:33.216Z,86920.22
2023-04-16T14:29:01.018Z,86920.16
2023-04-16T14:31:28.495Z,86924.56
2023-04-16T14:33:55.695Z,86919.63
2023-04-16T14:36:23.025Z,86932.44
2023-04-16T14:38:50.400Z,86924.50
2023-04-16T14:41:17.715Z,86927.13
2023-04-16T14:43:45.225Z,86939.84
2023-04-16T14:46:12.667Z,86947.97
2023-04-16T14:48:40.274Z,86940.78
2023-04-16T14:51:07.520Z,86939.59
2023-04-16T14:53:34.919Z,86937.09
2023-04-16T14:56:02.324Z,86935.38
2023-04-16T14:58:29.805Z,86930.03
2023-04-16T15:00:59.097Z,86938.03
2023-04-16T15:03:26.738Z,86937.72
2023-04-16T15:05:54.523Z,86941.84
2023-04-16T15:08:22.910Z,86939.38
2023-04-16T15:10:51.228Z,86950.13
2023-04-16T15:13:19.002Z,86952.19
2023-04-16T15:15:46.356Z,86958.16
2023-04-16T15:18:13.742Z,86956.19
2023-04-16T15:20:41.075Z,86945.75
2023-04-16T15:23:08.676Z,86955.50
2023-04-16T15:25:36.046Z,86955.63
2023-04-16T15:28:03.421Z,86951.66
2023-04-16T15:30:31.628Z,86955.06
2023-04-16T15:32:59.614Z,86953.84
2023-04-16T15:35:26.905Z,86954.13
2023-04-16T15:37:57.276Z,86961.28
2023-04-16T15:40:25.555Z,86966.19
2023-04-16T15:42:52.737Z,86952.22
2023-04-16T15:45:20.097Z,86963.72
2023-04-16T15:47:47.563Z,86965.34
2023-04-16T15:50:15.195Z,86962.81
2023-04-16T15:52:42.531Z,86964.28
2023-04-16T15:55:10.325Z,86971.19
2023-04-16T15:57:37.545Z,86980.59
2023-04-16T16:00:07.373Z,86978.25
2023-04-16T16:02:35.236Z,86986.16
2023-04-16T16:05:03.127Z,86979.22
2023-04-16T16:07:31.440Z,86981.34
2023-04-16T16:09:58.848Z,86995.59
2023-04-16T16:12:26.060Z,86989.22
2023-04-16T16:14:53.353Z,86988.38
2023-04-16T16:17:20.616Z,86983.84
2023-04-16T16:19:48.125Z,86997.56
2023-04-16T16:22:15.540Z,86983.69
2023-04-16T16:24:42.935Z,86991.16
2023-04-16T16:27:10.225Z,87000.78
2023-04-16T16:29:37.519Z,86995.97
2023-04-16T16:32:05.253Z,87002.22
2023-04-16T16:34:32.759Z,87011.25
2023-04-16T16:36:59.965Z,87002.78
2023-04-16T16:39:27.654Z,87004.41
2023-04-16T16:41:55.064Z,87006.16
2023-04-16T16:44:23.085Z,87013.00
2023-04-16T16:46:51.045Z,87007.06
2023-04-16T16:49:18.754Z,86999.50
2023-04-16T16:51:47.039Z,87000.31
2023-04-16T16:54:14.888Z,87006.94
2023-04-16T16:56:42.567Z,87007.50
2023-04-16T16:59:10.852Z,87001.13
2023-04-16T17:01:38.452Z,87004.53
2023-04-16T17:04:06.082Z,86998.34
2023-04-16T17:06:33.760Z,87006.00
2023-04-16T17:09:02.248Z,87001.91
2023-04-16T17:11:29.755Z,87013.84
2023-04-16T17:13:57.216Z,87014.31
2023-04-16T17:16:25.019Z,87011.00
2023-04-16T17:18:52.288Z,87014.16
2023-04-16T17:21:19.402Z,87020.97
2023-04-16T17:23:46.643Z,87024.06
2023-04-16T17:26:14.386Z,87022.22
2023-04-16T17:28:41.675Z,87021.16
2023-04-16T17:31:08.912Z,87026.09
2023-04-16T17:33:36.755Z,87030.22
2023-04-16T17:36:04.900Z,87035.88
2023-04-16T17:38:32.885Z,87025.34
2023-04-16T17:41:00.382Z,87040.09
2023-04-16T17:43:28.549Z,87030.34
2023-04-16T17:45:56.390Z,87039.88
2023-04-16T17:48:23.625Z,87037.59
2023-04-16T17:50:51.008Z,87040.28
2023-04-16T17:53:18.302Z,87044.44
2023-04-16T17:55:54.547Z,87043.63
2023-04-16T17:58:23.882Z,87055.34
2023-04-16T18:00:51.339Z,87054.56
2023-04-16T18:03:20.697Z,87064.00
2023-04-16T18:05:49.438Z,87060.25
2023-04-16T18:08:17.442Z,87062.88
2023-04-16T18:10:45.505Z,87064.75
2023-04-16T18:13:12.973Z,87076.09
2023-04-16T18:15:40.613Z,87074.97
2023-04-16T18:18:08.553Z,87079.16
2023-04-16T18:20:35.922Z,87081.84
2023-04-16T18:23:03.701Z,87078.84
2023-04-16T18:25:34.960Z,87087.94
2023-04-16T18:28:03.268Z,87089.06
2023-04-16T18:30:31.010Z,87095.13
2023-04-16T18:35:28.931Z,87096.59
2023-04-16T18:37:56.388Z,87101.88
2023-04-16T18:40:23.993Z,87105.25
2023-04-16T18:42:52.992Z,87104.88
2023-04-16T18:45:21.918Z,87103.00
2023-04-16T18:47:49.801Z,87109.38
2023-04-16T18:50:18.720Z,87103.34
2023-04-16T18:52:46.335Z,87111.56
2023-04-16T18:55:16.699Z,87112.66
2023-04-16T18:57:44.550Z,87107.03
2023-04-16T19:00:13.086Z,87109.22
2023-04-16T19:02:40.806Z,87117.88
2023-04-16T19:05:09.828Z,87115.06
2023-04-16T19:07:37.687Z,87118.88
2023-04-16T19:10:06.171Z,87121.88
2023-04-16T19:12:33.452Z,87132.03
2023-04-16T19:15:01.166Z,87138.78
2023-04-16T19:17:28.611Z,87132.38
2023-04-16T19:19:56.089Z,87135.38
2023-04-16T19:22:23.656Z,87134.28
2023-04-16T19:24:51.011Z,87140.59
2023-04-16T19:27:18.480Z,87135.72
2023-04-16T19:29:45.673Z,87142.47
2023-04-16T19:32:14.135Z,87143.53
2023-04-16T19:34:41.606Z,87157.38
2023-04-16T19:37:08.881Z,87152.47
2023-04-16T19:39:36.480Z,87150.94
2023-04-16T19:42:04.471Z,87152.03
2023-04-16T19:44:31.646Z,87148.31
2023-04-16T19:46:59.590Z,87151.59
2023-04-16T19:49:27.248Z,87156.38
2023-04-16T19:51:54.504Z,87158.97
2023-04-16T19:54:21.715Z,87161.22
2023-04-16T19:56:50.288Z,87166.03
2023-04-16T19:59:18.298Z,87173.47
2023-04-16T20:01:46.510Z,87168.53
2023-04-16T20:04:13.750Z,87171.53
2023-04-16T20:06:41.493Z,87163.97
2023-04-16T20:09:08.897Z,87165.41
2023-04-16T20:11:36.208Z,87160.50
2023-04-16T20:14:03.893Z,87167.16
2023-04-16T20:16:31.379Z,87160.78
2023-04-16T20:18:59.793Z,87168.97
2023-04-16T20:21:28.024Z,87166.25
2023-04-16T20:23:55.251Z,87171.13
2023-04-16T20:26:22.994Z,87170.25
2023-04-16T20:28:50.368Z,87173.91
2023-04-16T20:31:17.897Z,87179.88
2023-04-16T20:33:45.595Z,87180.22
2023-04-16T20:36:12.881Z,87176.31
2023-04-16T20:38:40.124Z,87180.91
2023-04-16T20:41:07.400Z,87178.28
2023-04-16T20:43:34.596Z,87181.59
2023-04-16T20:46:01.866Z,87174.41
2023-04-16T20:48:29.126Z,87172.53
2023-04-16T20:51:04.539Z,87180.03
2023-04-16T20:53:32.884Z,87172.53
2023-04-16T20:56:00.413Z,87166.66
2023-04-16T20:58:27.811Z,87180.25
2023-04-16T21:00:57.494Z,87173.06
2023-04-16T21:03:26.258Z,87173.16
2023-04-16T21:05:55.672Z,87160.00
2023-04-16T21:08:24.420Z,87173.47
2023-04-16T21:10:51.859Z,87175.28
2023-04-16T21:13:19.648Z,87180.41
2023-04-16T21:15:47.062Z,87175.97
2023-04-16T21:18:14.664Z,87178.16
2023-04-16T21:20:41.856Z,87177.31
2023-04-16T21:23:09.473Z,87175.28
2023-04-16T21:25:36.760Z,87175.19
2023-04-16T21:28:04.110Z,87173.69
2023-04-16T21:30:31.253Z,87172.13
2023-04-16T21:32:58.691Z,87179.19
2023-04-16T21:35:26.133Z,87172.38
2023-04-16T21:37:53.509Z,87181.59
2023-04-16T21:40:20.835Z,87183.00
2023-04-16T21:42:48.411Z,87183.25
2023-04-16T21:45:15.642Z,87182.84
2023-04-16T21:47:43.011Z,87177.56
2023-04-16T21:50:11.015Z,87184.59
2023-04-16T21:52:38.338Z,87177.06
2023-04-16T21:55:08.038Z,87176.00
2023-04-16T21:57:35.288Z,87183.44
2023-04-16T22:00:02.848Z,87183.44
2023-04-16T22:02:30.190Z,87188.22
2023-04-16T22:04:57.403Z,87183.34
2023-04-16T22:07:24.532Z,87188.16
2023-04-16T22:09:51.664Z,87185.56
2023-04-16T22:12:18.938Z,87184.91
2023-04-16T22:14:59.558Z,87187.13
2023-04-16T22:17:29.433Z,87184.03
2023-04-16T22:19:56.718Z,87184.72
2023-04-16T22:22:23.974Z,87183.88
2023-04-16T22:24:51.264Z,87177.34
2023-04-16T22:27:18.921Z,87178.13
2023-04-16T22:29:46.241Z,87181.41
2023-04-16T22:32:13.475Z,87185.09
2023-04-16T22:34:40.778Z,87183.38
2023-04-16T22:37:08.133Z,87178.03
2023-04-16T22:39:35.434Z,87188.91
2023-04-16T22:42:02.687Z,87187.72
2023-04-16T22:44:29.865Z,87186.56
2023-04-16T22:46:57.238Z,87186.16
2023-04-16T22:49:24.482Z,87189.13
2023-04-16T22:51:51.686Z,87187.84
2023-04-16T22:54:18.878Z,87183.78
2023-04-16T22:56:46.509Z,87185.22
2023-04-16T22:59:13.880Z,87181.75
2023-04-16T23:01:41.199Z,87185.06
2023-04-16T23:04:08.556Z,87190.28
2023-04-16T23:06:35.821Z,87176.41
2023-04-16T23:09:03.096Z,87185.34
2023-04-16T23:11:30.281Z,87189.06
2023-04-16T23:13:57.637Z,87178.88
2023-04-16T23:16:24.915Z,87184.09
2023-04-16T23:18:52.137Z,87177.78
2023-04-16T23:21:19.231Z,87176.25
2023-04-16T23:23:46.507Z,87185.22
2023-04-16T23:26:13.908Z,87190.78
2023-04-16T23:28:41.523Z,87180.69
2023-04-16T23:31:08.962Z,87180.94
2023-04-16T23:33:36.144Z,87177.78
2023-04-16T23:36:03.665Z,87181.53
2023-04-16T23:38:30.939Z,87185.16
2023-04-16T23:40:58.130Z,87180.00
2023-04-16T23:43:25.416Z,87186.41
2023-04-16T23:45:52.709Z,87188.09
2023-04-16T23:48:20.070Z,87186.53
2023-04-16T23:50:47.546Z,87183.22
2023-04-16T23:53:14.776Z,87185.84
2023-04-16T23:55:42.040Z,87182.81
2023-04-16T23:58:09.273Z,87182.41
